Time;durP1;ratioP1;P1;durP2;ratioP2;P2;SDS_P1;SDS_P2;PMS_P1;PMS_P2;Temp;Humidity;BMP_temperature;BMP_pressure;BME280_temperature;BME280_humidity;BME280_pressure;Samples;Min_cycle;Max_cycle;Signal;HPM_P1;HPM_P2
2023/04/24 00:01:24;;;;;;;1.27;1.13;;;12.60;82.20;;;;;;4994847;28;20037;-65
2023/04/24 00:03:49;;;;;;;1.92;1.08;;;12.60;82.10;;;;;;4995350;28;20133;-65
2023/04/24 00:06:16;;;;;;;1.25;1.10;;;12.60;83.20;;;;;;4997177;28;20493;-65
2023/04/24 00:08:42;;;;;;;1.58;0.98;;;12.60;82.20;;;;;;4996826;28;20042;-65
2023/04/24 00:11:09;;;;;;;1.30;0.90;;;12.70;82.30;;;;;;5000592;28;20060;-65
2023/04/24 00:13:35;;;;;;;1.05;0.98;;;12.60;82.20;;;;;;4996960;28;20034;-65
2023/04/24 00:16:00;;;;;;;1.98;1.00;;;12.70;82.40;;;;;;4994052;28;20037;-65
2023/04/24 00:18:26;;;;;;;0.98;0.90;;;12.70;83.10;;;;;;4991127;28;20034;-65
2023/04/24 00:20:52;;;;;;;1.20;1.10;;;12.70;82.10;;;;;;4995442;28;20042;-65
2023/04/24 00:23:17;;;;;;;1.17;1.00;;;12.70;82.40;;;;;;4994038;28;20038;-65
2023/04/24 00:25:43;;;;;;;2.03;1.08;;;12.70;82.20;;;;;;4994732;28;20034;-65
2023/04/24 00:28:09;;;;;;;1.42;1.00;;;12.70;82.20;;;;;;4993395;28;20081;-65
2023/04/24 00:30:34;;;;;;;1.30;0.95;;;12.70;82.10;;;;;;4994582;28;20026;-65
2023/04/24 00:33:00;;;;;;;1.42;1.10;;;12.70;82.20;;;;;;4996241;28;20489;-65
2023/04/24 00:35:25;;;;;;;0.82;0.82;;;12.70;82.30;;;;;;4993518;28;20042;-65
2023/04/24 00:37:51;;;;;;;0.80;0.80;;;12.70;82.30;;;;;;4994855;28;20045;-65
2023/04/24 00:40:17;;;;;;;1.48;1.10;;;12.70;82.40;;;;;;4994583;28;20066;-65
2023/04/24 00:42:43;;;;;;;2.10;0.95;;;12.70;82.20;;;;;;4994446;28;20045;-64
2023/04/24 00:45:09;;;;;;;1.10;0.70;;;12.70;82.20;;;;;;4996876;28;20041;-64
2023/04/24 00:47:35;;;;;;;1.67;0.80;;;12.70;81.90;;;;;;4996863;28;20537;-64
2023/04/24 00:50:05;;;;;;;2.38;0.90;;;12.70;81.90;;;;;;4997108;28;20066;-65
2023/04/24 00:52:32;;;;;;;1.00;0.90;;;12.60;81.80;;;;;;4996272;28;20030;-65
2023/04/24 00:54:58;;;;;;;1.08;0.88;;;12.60;81.80;;;;;;4994087;28;20041;-65
2023/04/24 00:57:25;;;;;;;0.70;0.70;;;12.60;82.00;;;;;;4994082;28;20034;-64
2023/04/24 00:59:51;;;;;;;0.95;0.70;;;12.70;81.90;;;;;;4993230;28;20041;-64
2023/04/24 01:02:17;;;;;;;2.70;0.50;;;12.70;82.10;;;;;;5001530;28;20502;-65
2023/04/24 01:04:43;;;;;;;0.60;0.60;;;12.60;81.80;;;;;;4998863;28;20124;-64
2023/04/24 01:07:11;;;;;;;1.88;0.55;;;12.60;81.60;;;;;;5001464;28;20038;-64
2023/04/24 01:09:41;;;;;;;1.00;0.65;;;12.60;81.60;;;;;;5001612;28;20058;-65
2023/04/24 01:12:06;;;;;;;1.10;0.60;;;12.60;81.70;;;;;;5001970;28;20042;-64
2023/04/24 01:14:33;;;;;;;1.83;0.90;;;12.60;81.50;;;;;;5000493;28;20030;-65
2023/04/24 01:16:58;;;;;;;1.00;0.60;;;12.60;81.50;;;;;;5000257;28;20100;-65
2023/04/24 01:19:24;;;;;;;1.08;0.50;;;12.70;81.60;;;;;;4997860;28;20506;-65
2023/04/24 01:21:53;;;;;;;3.65;0.88;;;12.60;81.60;;;;;;4995026;28;20217;-65
2023/04/24 01:24:19;;;;;;;0.85;0.75;;;12.60;81.70;;;;;;4996806;28;20026;-65
2023/04/24 01:26:45;;;;;;;1.05;0.80;;;12.60;81.50;;;;;;4996490;28;20459;-64
2023/04/24 01:29:11;;;;;;;2.55;0.80;;;12.60;81.60;;;;;;4998247;28;20041;-65
2023/04/24 01:31:38;;;;;;;1.25;0.80;;;12.60;81.70;;;;;;4995605;28;20053;-65
2023/04/24 01:34:04;;;;;;;0.98;0.75;;;12.60;81.70;;;;;;4995942;28;20037;-65
2023/04/24 01:36:32;;;;;;;1.05;0.90;;;12.60;81.60;;;;;;4995571;28;20034;-65
2023/04/24 01:38:57;;;;;;;0.88;0.82;;;12.60;81.70;;;;;;4995263;28;20170;-65
2023/04/24 01:41:24;;;;;;;1.00;0.70;;;12.50;81.50;;;;;;4998887;28;20553;-65
2023/04/24 01:43:50;;;;;;;1.25;0.70;;;12.50;81.60;;;;;;4992589;28;20056;-65
2023/04/24 01:46:16;;;;;;;1.42;0.68;;;12.50;81.70;;;;;;4995238;28;20088;-65
2023/04/24 01:48:42;;;;;;;1.60;0.80;;;12.50;81.80;;;;;;4998411;28;20453;-64
2023/04/24 01:51:08;;;;;;;0.85;0.82;;;12.50;81.90;;;;;;4993757;28;20050;-65
2023/04/24 01:53:34;;;;;;;0.95;0.90;;;12.50;81.80;;;;;;4995817;28;20116;-65
2023/04/24 01:56:01;;;;;;;1.58;0.80;;;12.40;81.80;;;;;;4995430;28;20041;-65
2023/04/24 01:58:27;;;;;;;0.93;0.80;;;12.40;82.00;;;;;;4996553;28;20046;-65
2023/04/24 02:00:52;;;;;;;1.35;0.73;;;12.40;82.00;;;;;;4994475;28;20042;-65
2023/04/24 02:03:18;;;;;;;1.42;1.10;;;12.30;81.90;;;;;;4992285;28;20034;-64
2023/04/24 02:05:45;;;;;;;0.80;0.80;;;12.30;82.10;;;;;;4993231;28;20048;-64
2023/04/24 02:08:10;;;;;;;1.15;1.05;;;12.30;82.10;;;;;;4995518;28;20041;-65
2023/04/24 02:10:36;;;;;;;1.23;1.10;;;12.30;82.20;;;;;;4997184;28;20048;-64
2023/04/24 02:13:02;;;;;;;1.25;1.00;;;12.30;82.40;;;;;;4993843;28;20061;-64
2023/04/24 02:15:27;;;;;;;1.30;1.02;;;12.30;82.30;;;;;;4995220;28;20133;-64
2023/04/24 02:17:53;;;;;;;1.48;1.15;;;12.30;82.40;;;;;;4995546;28;20117;-65
2023/04/24 02:20:19;;;;;;;1.35;1.23;;;12.20;82.50;;;;;;4996969;28;20097;-64
2023/04/24 02:22:44;;;;;;;1.23;0.93;;;12.20;82.60;;;;;;4995094;28;20402;-64
2023/04/24 02:25:10;;;;;;;2.30;1.00;;;12.20;82.70;;;;;;4993770;28;20131;-65
2023/04/24 02:27:36;;;;;;;2.25;0.90;;;12.20;82.80;;;;;;4995376;28;20048;-64
2023/04/24 02:30:02;;;;;;;1.02;1.00;;;12.20;82.90;;;;;;4997251;28;20064;-65
2023/04/24 02:32:28;;;;;;;1.55;1.23;;;12.10;83.00;;;;;;4993200;28;20576;-63
2023/04/24 02:34:54;;;;;;;3.80;1.10;;;12.10;83.10;;;;;;4993398;28;20038;-65
2023/04/24 02:37:19;;;;;;;1.20;1.10;;;12.10;83.00;;;;;;4995337;28;20042;-64
2023/04/24 02:39:45;;;;;;;1.35;1.25;;;12.10;83.10;;;;;;4991235;28;20095;-65
2023/04/24 02:42:10;;;;;;;1.27;1.10;;;12.10;83.40;;;;;;4994637;28;20033;-64
2023/04/24 02:44:36;;;;;;;1.52;1.20;;;12.00;83.20;;;;;;4992069;28;20044;-65
2023/04/24 02:47:01;;;;;;;2.58;1.40;;;12.00;83.40;;;;;;4993420;28;20378;-65
2023/04/24 02:49:27;;;;;;;2.15;1.30;;;12.00;83.40;;;;;;4996245;28;20084;-64
2023/04/24 02:51:52;;;;;;;1.00;1.00;;;12.00;83.40;;;;;;4993616;28;20046;-64
2023/04/24 02:54:18;;;;;;;1.00;1.00;;;12.00;83.50;;;;;;4992687;28;20046;-64
2023/04/24 02:56:44;;;;;;;1.30;1.20;;;12.00;83.60;;;;;;4995597;28;20044;-65
2023/04/24 02:59:10;;;;;;;1.52;1.20;;;12.00;83.50;;;;;;4993949;28;20042;-64
2023/04/24 03:01:36;;;;;;;2.58;1.55;;;11.90;83.70;;;;;;4992125;28;20418;-65
2023/04/24 03:04:01;;;;;;;2.15;1.40;;;11.90;83.80;;;;;;4992522;28;20266;-65
2023/04/24 03:06:27;;;;;;;2.55;1.48;;;11.90;83.70;;;;;;4998615;28;20141;-65
2023/04/24 03:08:54;;;;;;;2.22;1.40;;;11.90;83.80;;;;;;4995545;28;20041;-65
2023/04/24 03:11:20;;;;;;;1.30;1.20;;;11.90;83.90;;;;;;4997538;28;20129;-65
2023/04/24 03:13:45;;;;;;;2.22;1.20;;;11.90;84.00;;;;;;4995891;28;20529;-65
2023/04/24 03:16:11;;;;;;;1.15;1.10;;;11.90;84.10;;;;;;4995307;28;20038;-65
2023/04/24 03:18:36;;;;;;;1.20;1.10;;;11.90;84.10;;;;;;4994235;28;20138;-64
2023/04/24 03:21:03;;;;;;;1.13;1.05;;;11.90;84.10;;;;;;4995474;28;20042;-64
2023/04/24 03:23:29;;;;;;;2.38;1.20;;;11.90;84.10;;;;;;4995955;28;20137;-65
2023/04/24 03:25:54;;;;;;;2.97;1.02;;;11.90;84.10;;;;;;4994362;28;20042;-65
2023/04/24 03:28:20;;;;;;;1.38;1.10;;;11.80;84.20;;;;;;4993185;28;20117;-65
2023/04/24 03:30:46;;;;;;;0.93;0.93;;;11.80;84.40;;;;;;4991568;28;20042;-65
2023/04/24 03:33:11;;;;;;;1.88;1.27;;;11.90;84.50;;;;;;4993813;28;20037;-65
2023/04/24 03:35:37;;;;;;;1.40;1.13;;;11.90;84.50;;;;;;4994727;28;20105;-65
2023/04/24 03:38:04;;;;;;;2.00;1.00;;;11.90;84.50;;;;;;4995975;28;20429;-64
2023/04/24 03:40:30;;;;;;;1.05;0.98;;;11.90;84.30;;;;;;4993623;28;20425;-65
2023/04/24 03:42:55;;;;;;;0.88;0.88;;;11.90;84.30;;;;;;4992871;28;20042;-65
2023/04/24 03:45:21;;;;;;;1.38;1.10;;;11.90;84.10;;;;;;4993305;28;20092;-65
2023/04/24 03:47:46;;;;;;;0.80;0.80;;;11.90;84.20;;;;;;4995643;28;20049;-65
2023/04/24 03:50:12;;;;;;;1.85;0.90;;;11.90;84.00;;;;;;4996498;28;20041;-64
2023/04/24 03:52:37;;;;;;;0.93;0.90;;;11.90;84.00;;;;;;4994114;28;20040;-65
2023/04/24 03:55:06;;;;;;;1.58;0.80;;;11.90;84.00;;;;;;4993847;28;20053;-64
2023/04/24 03:57:31;;;;;;;0.85;0.80;;;11.90;84.00;;;;;;4992974;28;20222;-65
2023/04/24 03:59:57;;;;;;;0.82;0.70;;;11.90;83.90;;;;;;4994025;28;20543;-65
2023/04/24 04:02:22;;;;;;;0.43;0.43;;;11.90;83.80;;;;;;4992154;28;20437;-65
2023/04/24 04:04:48;;;;;;;0.63;0.60;;;11.90;83.70;;;;;;4994091;28;20038;-65
2023/04/24 04:07:13;;;;;;;0.80;0.60;;;12.00;83.60;;;;;;4993826;28;20045;-64
2023/04/24 04:09:39;;;;;;;2.60;0.70;;;12.00;83.50;;;;;;4993748;28;20041;-65
2023/04/24 04:12:05;;;;;;;0.55;0.50;;;12.00;83.40;;;;;;4995549;28;20448;-65
2023/04/24 04:14:30;;;;;;;1.55;0.45;;;11.90;83.30;;;;;;4992625;28;20413;-65
2023/04/24 04:16:56;;;;;;;1.65;0.50;;;12.00;83.20;;;;;;4993426;28;20647;-65
2023/04/24 04:19:21;;;;;;;3.28;1.77;;;11.90;83.10;;;;;;4993078;28;20540;-65
2023/04/24 04:21:52;;;;;;;3.92;1.85;;;11.90;83.00;;;;;;4992854;28;20037;-64
2023/04/24 04:24:18;;;;;;;8.15;6.32;;;12.00;83.00;;;;;;4995010;28;20065;-65
2023/04/24 04:26:46;;;;;;;5.38;3.55;;;12.00;82.90;;;;;;4993499;28;20031;-65
2023/04/24 04:29:12;;;;;;;0.93;0.77;;;11.90;82.90;;;;;;4992246;28;20113;-64
2023/04/24 04:31:38;;;;;;;1.85;0.60;;;11.90;82.90;;;;;;4994362;28;20070;-65
2023/04/24 04:34:03;;;;;;;0.50;0.43;;;11.90;82.90;;;;;;4996386;28;20073;-64
2023/04/24 04:36:29;;;;;;;0.70;0.50;;;11.90;82.90;;;;;;5000086;28;20030;-64
2023/04/24 04:38:56;;;;;;;1.27;0.65;;;11.90;82.80;;;;;;5000836;28;20088;-64
2023/04/24 04:41:22;;;;;;;2.25;0.50;;;11.90;82.80;;;;;;4999943;28;20041;-64
2023/04/24 04:43:48;;;;;;;1.02;0.43;;;11.90;82.80;;;;;;4999231;28;20057;-64
2023/04/24 04:46:13;;;;;;;2.25;0.40;;;11.90;82.70;;;;;;4998943;28;20045;-64
2023/04/24 04:48:39;;;;;;;0.60;0.60;;;11.90;82.70;;;;;;4999500;28;20057;-64
2023/04/24 04:51:05;;;;;;;3.42;1.83;;;11.80;82.70;;;;;;5000435;28;20043;-64
2023/04/24 04:53:31;;;;;;;0.70;0.40;;;11.80;82.60;;;;;;5000506;28;20052;-64
2023/04/24 04:55:56;;;;;;;0.82;0.70;;;11.80;82.60;;;;;;5000774;28;20113;-64
2023/04/24 04:58:22;;;;;;;0.45;0.40;;;11.80;82.40;;;;;;5000600;28;20634;-64
2023/04/24 05:00:48;;;;;;;0.85;0.38;;;11.80;82.30;;;;;;4998483;28;20046;-64
2023/04/24 05:03:13;;;;;;;0.50;0.38;;;11.80;82.40;;;;;;4998745;28;20038;-64
2023/04/24 05:05:40;;;;;;;0.60;0.40;;;11.80;82.20;;;;;;4999971;28;20511;-64
2023/04/24 05:08:07;;;;;;;0.40;0.40;;;11.80;82.10;;;;;;5000133;28;20045;-64
2023/04/24 05:10:33;;;;;;;0.38;0.22;;;11.80;82.20;;;;;;5001114;28;20038;-64
2023/04/24 05:12:58;;;;;;;1.00;0.95;;;11.70;82.00;;;;;;4999567;28;20037;-64
2023/04/24 05:15:24;;;;;;;1.42;1.23;;;11.70;82.10;;;;;;5000066;28;20062;-64
2023/04/24 05:17:50;;;;;;;0.55;0.40;;;11.70;82.10;;;;;;4999775;28;20038;-64
2023/04/24 05:20:15;;;;;;;1.17;0.50;;;11.70;82.00;;;;;;4999518;28;20339;-64
2023/04/24 05:22:41;;;;;;;1.92;0.80;;;11.70;82.00;;;;;;5000349;28;20034;-64
2023/04/24 05:25:07;;;;;;;1.88;0.85;;;11.80;82.10;;;;;;5000067;28;20034;-64
2023/04/24 05:27:33;;;;;;;1.88;0.43;;;11.70;82.00;;;;;;5000637;28;20034;-64
2023/04/24 05:29:59;;;;;;;0.30;0.30;;;11.70;82.00;;;;;;5000180;28;20468;-64
2023/04/24 05:32:24;;;;;;;0.57;0.40;;;11.60;82.00;;;;;;5001097;28;20030;-64
2023/04/24 05:34:50;;;;;;;0.30;0.20;;;11.70;82.20;;;;;;4998614;28;20046;-64
2023/04/24 05:37:15;;;;;;;0.90;0.50;;;11.70;82.00;;;;;;5000025;28;20026;-64
2023/04/24 05:39:41;;;;;;;0.50;0.30;;;11.70;82.10;;;;;;5000169;28;20425;-64
2023/04/24 05:42:07;;;;;;;1.13;0.20;;;11.60;82.20;;;;;;5000351;28;20041;-64
2023/04/24 05:44:32;;;;;;;0.40;0.32;;;11.60;82.20;;;;;;4999781;28;20133;-64
2023/04/24 05:46:58;;;;;;;4.32;1.40;;;11.70;82.20;;;;;;4997976;28;20066;-64
2023/04/24 05:49:23;;;;;;;0.60;0.52;;;11.60;82.10;;;;;;4998841;28;20119;-64
2023/04/24 05:51:49;;;;;;;0.68;0.50;;;11.70;82.30;;;;;;4996689;28;20617;-64
2023/04/24 05:54:15;;;;;;;0.30;0.30;;;11.70;82.30;;;;;;4998127;28;20042;-64
2023/04/24 05:56:40;;;;;;;0.43;0.30;;;11.70;82.30;;;;;;4998133;28;20034;-64
2023/04/24 05:59:07;;;;;;;0.40;0.22;;;11.70;82.30;;;;;;4999032;28;20103;-64
2023/04/24 06:01:32;;;;;;;0.60;0.50;;;11.70;82.40;;;;;;4999148;28;20066;-63
2023/04/24 06:03:58;;;;;;;4.40;0.65;;;11.70;82.40;;;;;;4998290;28;20092;-64
2023/04/24 06:06:24;;;;;;;1.63;0.32;;;11.70;82.40;;;;;;4998302;28;20072;-64
2023/04/24 06:08:50;;;;;;;4.07;0.82;;;11.70;82.40;;;;;;4997851;28;20046;-65
2023/04/24 06:11:15;;;;;;;1.75;1.00;;;11.70;80.20;;;;;;4998990;28;20042;-66
2023/04/24 06:13:41;;;;;;;2.15;1.00;;;11.60;78.00;;;;;;4999311;28;20056;-66
2023/04/24 06:16:06;;;;;;;1.73;1.10;;;11.40;77.70;;;;;;4998267;28;20045;-66
2023/04/24 06:18:32;;;;;;;2.65;0.93;;;11.20;77.80;;;;;;4997743;28;20476;-66
2023/04/24 06:20:58;;;;;;;1.60;0.90;;;10.90;78.60;;;;;;4997750;28;20042;-66
2023/04/24 06:23:23;;;;;;;1.48;0.90;;;10.70;79.50;;;;;;4997729;28;20029;-66
2023/04/24 06:25:49;;;;;;;1.65;1.10;;;10.50;80.20;;;;;;4997554;28;20338;-65
2023/04/24 06:28:15;;;;;;;1.10;1.00;;;10.30;81.30;;;;;;4998094;28;20128;-64
2023/04/24 06:30:41;;;;;;;1.20;1.10;;;10.20;81.90;;;;;;4997063;28;20470;-64
2023/04/24 06:33:06;;;;;;;2.83;1.05;;;10.00;82.60;;;;;;4997656;28;20234;-65
2023/04/24 06:35:32;;;;;;;1.40;1.30;;;9.90;83.20;;;;;;4998353;28;20402;-65
2023/04/24 06:37:57;;;;;;;1.20;1.10;;;9.90;83.60;;;;;;4998765;28;20572;-64
2023/04/24 06:40:23;;;;;;;3.05;1.42;;;9.80;84.10;;;;;;4999103;28;20038;-65
2023/04/24 06:42:48;;;;;;;2.72;1.42;;;9.80;84.40;;;;;;4997979;28;20052;-64
2023/04/24 06:45:14;;;;;;;2.42;1.05;;;9.70;84.50;;;;;;4998143;28;20089;-64
2023/04/24 06:47:40;;;;;;;1.20;1.10;;;9.70;84.70;;;;;;4997854;28;20061;-64
2023/04/24 06:50:06;;;;;;;2.90;1.65;;;9.70;84.70;;;;;;4997490;28;20049;-64
2023/04/24 06:52:32;;;;;;;2.75;2.03;;;9.70;85.10;;;;;;4997470;28;20029;-64
2023/04/24 06:55:02;;;;;;;2.22;1.90;;;9.70;85.20;;;;;;4997799;28;20499;-64
2023/04/24 06:57:28;;;;;;;3.10;1.88;;;9.70;85.50;;;;;;4997618;28;20088;-64
2023/04/24 06:59:54;;;;;;;1.33;1.25;;;9.80;85.50;;;;;;4998507;28;20068;-65
2023/04/24 07:02:20;;;;;;;1.60;1.38;;;9.90;85.90;;;;;;4997448;28;20553;-64
2023/04/24 07:04:46;;;;;;;1.48;1.08;;;9.90;86.00;;;;;;4997248;28;20035;-64
2023/04/24 07:07:14;;;;;;;1.55;1.27;;;10.00;86.00;;;;;;4997836;28;20038;-64
2023/04/24 07:09:42;;;;;;;1.88;1.13;;;10.10;86.00;;;;;;4997681;28;20109;-64
2023/04/24 07:12:10;;;;;;;2.30;1.40;;;10.20;86.10;;;;;;4999794;28;20418;-64
2023/04/24 07:14:37;;;;;;;1.27;1.13;;;10.20;86.00;;;;;;4997430;28;20030;-62
2023/04/24 07:17:03;;;;;;;1.88;1.45;;;10.30;85.90;;;;;;4997181;28;20038;-64
2023/04/24 07:19:29;;;;;;;3.17;1.40;;;10.40;85.80;;;;;;4998512;28;20446;-64
2023/04/24 07:21:55;;;;;;;2.05;1.60;;;10.50;85.70;;;;;;4997484;28;20065;-64
2023/04/24 07:24:20;;;;;;;1.70;1.50;;;10.60;85.30;;;;;;4996776;28;20064;-64
2023/04/24 07:26:46;;;;;;;2.17;1.80;;;10.70;84.70;;;;;;4996762;28;20029;-64
2023/04/24 07:29:12;;;;;;;3.45;1.83;;;10.70;84.50;;;;;;4995649;28;20402;-64
2023/04/24 07:31:38;;;;;;;2.45;1.63;;;10.80;84.60;;;;;;4997406;28;20141;-64
2023/04/24 07:34:04;;;;;;;1.42;1.33;;;10.80;84.60;;;;;;5001806;28;20465;-64
2023/04/24 07:36:29;;;;;;;2.63;1.50;;;10.90;84.90;;;;;;4998324;28;20041;-65
2023/04/24 07:38:56;;;;;;;3.03;1.45;;;11.00;85.20;;;;;;4998403;28;20039;-64
2023/04/24 07:41:22;;;;;;;1.48;1.38;;;11.10;85.30;;;;;;4996039;28;20030;-64
2023/04/24 07:43:48;;;;;;;2.70;1.52;;;11.10;85.20;;;;;;4996958;28;20038;-63
2023/04/24 07:46:13;;;;;;;1.90;1.40;;;11.20;85.20;;;;;;4998493;28;20092;-64
2023/04/24 07:48:39;;;;;;;1.80;1.40;;;11.30;84.90;;;;;;4996189;28;20048;-63
2023/04/24 07:51:05;;;;;;;2.95;1.52;;;11.40;84.10;;;;;;4996524;28;20042;-64
2023/04/24 07:53:30;;;;;;;1.42;1.33;;;11.50;83.80;;;;;;4998479;28;20038;-64
2023/04/24 07:55:56;;;;;;;1.90;1.30;;;11.50;83.60;;;;;;4996527;28;20532;-64
2023/04/24 07:58:22;;;;;;;1.60;1.42;;;11.50;84.00;;;;;;4995772;28;20036;-63
2023/04/24 08:00:47;;;;;;;2.33;1.20;;;11.60;83.20;;;;;;4997112;28;20068;-64
2023/04/24 08:03:13;;;;;;;1.65;1.05;;;11.70;83.50;;;;;;4994258;28;20113;-64
2023/04/24 08:05:39;;;;;;;1.08;0.90;;;11.70;83.40;;;;;;4998623;28;20042;-64
2023/04/24 08:08:04;;;;;;;1.52;1.42;;;11.80;83.40;;;;;;4997553;28;20049;-64
2023/04/24 08:10:30;;;;;;;1.20;0.90;;;11.90;83.30;;;;;;4996631;28;20486;-64
2023/04/24 08:12:56;;;;;;;1.20;1.00;;;12.00;83.90;;;;;;4998515;28;20118;-64
2023/04/24 08:15:21;;;;;;;0.82;0.82;;;12.10;82.70;;;;;;4998204;28;20034;-64
2023/04/24 08:17:47;;;;;;;1.00;0.70;;;12.00;82.50;;;;;;4995881;28;20069;-64
2023/04/24 08:20:15;;;;;;;1.00;0.52;;;12.10;82.30;;;;;;4997765;28;20042;-64
2023/04/24 08:22:42;;;;;;;0.60;0.60;;;12.10;82.10;;;;;;4997371;28;20076;-64
2023/04/24 08:25:09;;;;;;;1.23;0.90;;;12.20;81.70;;;;;;4996208;28;20046;-64
2023/04/24 08:27:36;;;;;;;0.75;0.60;;;12.20;81.70;;;;;;4997928;28;20042;-64
2023/04/24 08:30:03;;;;;;;0.63;0.40;;;12.20;81.60;;;;;;4996997;28;20564;-64
2023/04/24 08:32:28;;;;;;;1.13;0.60;;;12.20;80.80;;;;;;4997998;28;20037;-64
2023/04/24 08:34:58;;;;;;;0.50;0.50;;;12.30;80.10;;;;;;4997240;28;20039;-64
2023/04/24 08:37:25;;;;;;;1.48;0.60;;;12.20;79.80;;;;;;4998094;28;20157;-64
2023/04/24 08:39:51;;;;;;;0.73;0.40;;;12.20;79.40;;;;;;4997988;28;20060;-62
2023/04/24 08:42:18;;;;;;;0.60;0.60;;;12.20;79.30;;;;;;4997027;28;20061;-64
2023/04/24 08:44:44;;;;;;;0.93;0.68;;;12.20;79.50;;;;;;4997503;28;20041;-64
2023/04/24 08:47:11;;;;;;;0.93;0.50;;;12.10;79.60;;;;;;4998427;28;20030;-64
2023/04/24 08:49:38;;;;;;;1.08;0.70;;;12.30;80.00;;;;;;4997005;28;20035;-64
2023/04/24 08:52:05;;;;;;;1.00;0.70;;;12.20;80.10;;;;;;4997945;28;20043;-64
2023/04/24 08:54:33;;;;;;;1.52;0.65;;;12.20;80.60;;;;;;4996708;28;20080;-64
2023/04/24 08:57:06;;;;;;;1.45;0.57;;;12.30;80.60;;;;;;4997721;28;20062;-64
2023/04/24 08:59:32;;;;;;;1.05;0.82;;;12.30;81.00;;;;;;4996077;28;20031;-64
2023/04/24 09:01:57;;;;;;;0.90;0.57;;;12.40;81.20;;;;;;4996948;28;20033;-64
2023/04/24 09:04:24;;;;;;;1.48;0.50;;;12.50;78.40;;;;;;4998028;28;20468;-64
2023/04/24 09:06:57;;;;;;;0.50;0.30;;;12.50;76.10;;;;;;4995932;28;20050;-64
2023/04/24 09:09:24;;;;;;;2.10;0.40;;;12.40;76.30;;;;;;4998876;28;20033;-64
2023/04/24 09:11:53;;;;;;;0.45;0.45;;;12.30;76.30;;;;;;4998296;28;20093;-64
2023/04/24 09:14:19;;;;;;;0.93;0.55;;;12.20;76.70;;;;;;4998054;28;20042;-64
2023/04/24 09:16:45;;;;;;;1.95;0.40;;;12.00;77.40;;;;;;4996816;28;20035;-64
2023/04/24 09:19:11;;;;;;;1.23;0.55;;;11.80;78.20;;;;;;4997958;28;20092;-64
2023/04/24 09:21:36;;;;;;;0.45;0.40;;;11.70;79.30;;;;;;4998746;28;20037;-64
2023/04/24 09:24:06;;;;;;;1.73;0.45;;;11.60;80.00;;;;;;4999979;28;20042;-64
2023/04/24 09:26:35;;;;;;;1.40;0.30;;;11.50;80.50;;;;;;5000928;28;20038;-64
2023/04/24 09:29:01;;;;;;;0.80;0.60;;;11.40;81.80;;;;;;4999590;28;20042;-64
2023/04/24 09:31:29;;;;;;;1.65;0.65;;;11.40;82.70;;;;;;4999784;28;20045;-64
2023/04/24 09:34:06;;;;;;;0.98;0.88;;;11.40;83.30;;;;;;4998044;28;20045;-62
2023/04/24 09:36:37;;;;;;;0.80;0.80;;;11.40;85.20;;;;;;5000793;28;20038;-64
2023/04/24 09:39:09;;;;;;;0.85;0.70;;;11.50;84.60;;;;;;4999949;28;20286;-64
2023/04/24 09:41:35;;;;;;;0.60;0.60;;;11.60;82.90;;;;;;4999489;28;20026;-64
2023/04/24 09:44:19;;;;;;;0.60;0.60;;;11.70;83.00;;;;;;4999164;28;20039;-63
2023/04/24 09:46:49;;;;;;;1.05;0.90;;;11.80;82.30;;;;;;4998075;28;20038;-64
2023/04/24 09:49:16;;;;;;;1.98;0.90;;;11.90;81.30;;;;;;5000975;28;20038;-64
2023/04/24 09:51:42;;;;;;;0.70;0.70;;;11.90;80.80;;;;;;4998745;28;20124;-64
2023/04/24 09:54:21;;;;;;;1.55;0.80;;;12.10;79.70;;;;;;4998450;28;20049;-64
2023/04/24 09:56:49;;;;;;;1.00;0.90;;;12.10;79.40;;;;;;4998606;28;20574;-64
2023/04/24 09:59:19;;;;;;;1.80;0.80;;;12.10;78.70;;;;;;4999820;28;20088;-64
2023/04/24 10:01:45;;;;;;;1.02;0.90;;;12.10;78.10;;;;;;4998762;28;20506;-63
2023/04/24 10:04:21;;;;;;;1.15;1.00;;;12.10;77.10;;;;;;4999936;28;20042;-63
2023/04/24 10:06:48;;;;;;;1.98;1.13;;;12.20;77.80;;;;;;4999701;28;20137;-63
2023/04/24 10:09:16;;;;;;;2.92;1.20;;;12.20;76.70;;;;;;4998107;28;20041;-64
2023/04/24 10:11:44;;;;;;;1.13;0.90;;;12.30;76.50;;;;;;5000057;28;20041;-64
2023/04/24 10:14:22;;;;;;;2.20;1.10;;;12.50;76.60;;;;;;4998859;28;20387;-64
2023/04/24 10:16:49;;;;;;;1.00;0.90;;;12.50;74.90;;;;;;4997109;28;20038;-64
2023/04/24 10:19:15;;;;;;;1.23;0.85;;;12.70;70.60;;;;;;4999455;28;20398;-63
2023/04/24 10:21:46;;;;;;;3.40;1.00;;;12.80;71.40;;;;;;4997532;28;20038;-64
2023/04/24 10:24:16;;;;;;;0.88;0.80;;;12.90;71.50;;;;;;4997491;28;20034;-63
2023/04/24 10:26:42;;;;;;;2.38;0.90;;;13.10;67.70;;;;;;4998084;28;20088;-64
2023/04/24 10:29:09;;;;;;;1.27;0.90;;;13.20;68.00;;;;;;4998204;28;20137;-64
2023/04/24 10:31:36;;;;;;;1.40;0.95;;;13.30;67.90;;;;;;4997821;28;20038;-65
2023/04/24 10:34:05;;;;;;;2.20;1.05;;;13.50;65.80;;;;;;4997835;28;20457;-64
2023/04/24 10:36:32;;;;;;;1.77;1.05;;;13.60;64.10;;;;;;4997827;28;20042;-64
2023/04/24 10:39:00;;;;;;;3.78;0.90;;;13.70;62.60;;;;;;4999709;28;20042;-64
2023/04/24 10:41:26;;;;;;;2.00;1.40;;;13.70;63.20;;;;;;4997543;28;20030;-63
2023/04/24 10:44:04;;;;;;;3.22;1.20;;;13.80;63.60;;;;;;4998728;28;21076;-63
2023/04/24 10:46:30;;;;;;;1.58;1.23;;;13.80;62.30;;;;;;4999444;28;20037;-64
2023/04/24 10:48:58;;;;;;;2.47;1.20;;;13.80;63.20;;;;;;4998326;28;20050;-63
2023/04/24 10:51:24;;;;;;;1.40;1.30;;;13.70;64.30;;;;;;5000117;28;20038;-64
2023/04/24 10:53:51;;;;;;;1.73;1.30;;;13.70;63.80;;;;;;4997732;28;20038;-64
2023/04/24 10:56:17;;;;;;;2.00;1.20;;;13.70;62.70;;;;;;4998925;28;20494;-64
2023/04/24 10:58:45;;;;;;;1.70;0.90;;;13.70;62.30;;;;;;4995824;28;20122;-64
2023/04/24 11:01:26;;;;;;;2.55;1.10;;;13.60;64.00;;;;;;4999266;28;20034;-63
2023/04/24 11:03:57;;;;;;;1.20;1.00;;;13.70;61.40;;;;;;4999848;28;20410;-64
2023/04/24 11:06:34;;;;;;;1.90;0.90;;;13.70;62.20;;;;;;4999738;28;20030;-63
2023/04/24 11:09:08;;;;;;;1.23;1.10;;;13.80;62.00;;;;;;4999274;28;20041;-61
2023/04/24 11:11:37;;;;;;;2.65;1.00;;;13.80;61.70;;;;;;5000507;28;20038;-64
2023/04/24 11:14:06;;;;;;;1.10;1.00;;;13.80;60.60;;;;;;4997974;28;20034;-64
2023/04/24 11:16:33;;;;;;;3.50;0.95;;;13.90;61.50;;;;;;4998387;28;20037;-64
2023/04/24 11:19:06;;;;;;;2.80;0.80;;;13.90;61.50;;;;;;4998605;28;20050;-64
2023/04/24 11:21:42;;;;;;;1.17;1.08;;;14.00;62.20;;;;;;4996816;28;20105;-64
2023/04/24 11:24:30;;;;;;;1.45;0.75;;;14.10;61.70;;;;;;4997571;28;20038;-64
2023/04/24 11:27:21;;;;;;;1.02;0.93;;;14.20;60.50;;;;;;4997717;28;20034;-64
2023/04/24 11:29:55;;;;;;;2.10;0.88;;;14.30;61.40;;;;;;4997592;28;20425;-63
2023/04/24 11:32:23;;;;;;;0.68;0.65;;;14.40;60.50;;;;;;4996774;28;20041;-63
2023/04/24 11:34:52;;;;;;;0.82;0.75;;;14.50;61.50;;;;;;4996795;28;20026;-63
2023/04/24 11:37:18;;;;;;;1.88;0.70;;;14.50;58.60;;;;;;4996382;28;20535;-64
2023/04/24 11:39:44;;;;;;;1.02;0.70;;;14.60;60.00;;;;;;4998923;28;20030;-63
2023/04/24 11:42:10;;;;;;;1.48;0.90;;;14.60;59.00;;;;;;4996839;28;20049;-63
2023/04/24 11:44:37;;;;;;;1.95;0.90;;;14.60;58.80;;;;;;4995853;28;20062;-63
2023/04/24 11:47:06;;;;;;;2.65;0.70;;;14.60;59.00;;;;;;4998369;28;20060;-64
2023/04/24 11:49:32;;;;;;;2.15;0.80;;;14.60;58.50;;;;;;4996923;28;20528;-64
2023/04/24 11:51:59;;;;;;;1.05;0.95;;;14.60;58.20;;;;;;4998867;28;20046;-64
2023/04/24 11:54:25;;;;;;;1.48;0.95;;;14.60;58.00;;;;;;4997347;28;20053;-64
2023/04/24 11:56:51;;;;;;;1.00;0.90;;;14.50;58.00;;;;;;4996923;28;20125;-64
2023/04/24 11:59:16;;;;;;;1.55;0.90;;;14.50;58.30;;;;;;4998216;28;20049;-63
2023/04/24 12:01:45;;;;;;;1.70;1.20;;;14.50;58.20;;;;;;4997620;28;20092;-64
2023/04/24 12:04:12;;;;;;;1.40;1.20;;;14.40;58.50;;;;;;4997744;28;20500;-63
2023/04/24 12:06:37;;;;;;;1.98;0.80;;;14.30;59.00;;;;;;4997064;28;20042;-64
2023/04/24 12:09:03;;;;;;;2.97;0.95;;;14.20;58.80;;;;;;4997292;28;20046;-63
2023/04/24 12:11:29;;;;;;;1.60;1.30;;;14.20;58.00;;;;;;4998289;28;20449;-63
2023/04/24 12:13:54;;;;;;;1.58;1.05;;;14.20;58.30;;;;;;4995692;28;20484;-63
2023/04/24 12:16:20;;;;;;;1.33;1.20;;;14.10;58.80;;;;;;4996469;28;20097;-60
2023/04/24 12:18:46;;;;;;;2.08;1.08;;;14.00;58.90;;;;;;4996661;28;20303;-64
2023/04/24 12:21:16;;;;;;;1.23;1.10;;;14.00;58.90;;;;;;4997250;28;20038;-64
2023/04/24 12:23:44;;;;;;;3.13;1.40;;;13.90;59.30;;;;;;4998389;28;20030;-63
2023/04/24 12:26:10;;;;;;;2.17;1.35;;;13.80;58.80;;;;;;4997564;28;20089;-63
2023/04/24 12:28:37;;;;;;;1.70;1.52;;;13.80;58.70;;;;;;4998540;28;20035;-63
2023/04/24 12:31:02;;;;;;;2.95;1.10;;;13.70;58.20;;;;;;4998801;28;20460;-63
2023/04/24 12:33:33;;;;;;;1.73;1.15;;;13.70;58.90;;;;;;4998492;28;20038;-63
2023/04/24 12:35:59;;;;;;;3.35;1.40;;;13.70;56.90;;;;;;4997491;28;20324;-63
2023/04/24 12:38:29;;;;;;;4.03;1.52;;;13.60;58.10;;;;;;4997922;28;20037;-64
2023/04/24 12:41:09;;;;;;;2.97;1.40;;;13.70;57.80;;;;;;4997842;28;20125;-63
2023/04/24 12:43:36;;;;;;;2.13;1.10;;;13.60;57.00;;;;;;4998408;28;20038;-64
2023/04/24 12:46:02;;;;;;;2.30;1.20;;;13.60;58.20;;;;;;4998334;28;20109;-63